createdAt,value
2023-03-06T00:01:39.716Z,7.16
2023-03-06T00:03:41.313Z,7.16
2023-03-06T00:05:42.885Z,7.15
2023-03-06T00:07:45.128Z,7.14
2023-03-06T00:09:47.250Z,7.15
2023-03-06T00:11:48.845Z,7.15
2023-03-06T00:13:50.450Z,7.14
2023-03-06T00:15:52.480Z,7.15
2023-03-06T00:17:54.344Z,7.12
2023-03-06T00:19:56.048Z,7.11
2023-03-06T00:21:57.703Z,7.10
2023-03-06T00:23:59.150Z,7.12
2023-03-06T00:26:00.691Z,7.12
2023-03-06T00:28:02.343Z,7.13
2023-03-06T00:30:04.514Z,7.09
2023-03-06T00:32:06.597Z,7.10
2023-03-06T00:34:08.740Z,7.07
2023-03-06T00:36:10.691Z,7.08
2023-03-06T00:38:13.074Z,7.08
2023-03-06T00:40:18.062Z,7.07
2023-03-06T00:42:20.134Z,7.07
2023-03-06T00:44:21.684Z,7.08
2023-03-06T00:46:23.227Z,7.07
2023-03-06T00:48:24.890Z,7.06
2023-03-06T00:50:26.895Z,7.06
2023-03-06T00:52:28.407Z,7.07
2023-03-06T00:54:29.937Z,7.08
2023-03-06T00:56:31.508Z,7.08
2023-03-06T00:58:33.384Z,7.07
2023-03-06T01:00:34.955Z,7.05
2023-03-06T01:02:36.505Z,7.06
2023-03-06T01:04:38.062Z,7.06
2023-03-06T01:06:39.623Z,7.03
2023-03-06T01:08:41.217Z,7.03
2023-03-06T01:10:42.888Z,7.03
2023-03-06T01:12:45.123Z,7.02
2023-03-06T01:14:46.654Z,7.01
2023-03-06T01:16:49.086Z,7.02
2023-03-06T01:18:52.012Z,7.02
2023-03-06T01:20:53.475Z,6.99
2023-03-06T01:22:56.639Z,6.98
2023-03-06T01:24:58.185Z,6.97
2023-03-06T01:26:59.746Z,6.98
2023-03-06T01:29:01.759Z,6.97
2023-03-06T01:31:04.466Z,6.96
2023-03-06T01:33:06.136Z,6.95
2023-03-06T01:35:09.199Z,6.94
2023-03-06T01:37:10.715Z,6.95
2023-03-06T01:39:12.367Z,6.93
2023-03-06T01:41:17.249Z,6.92
2023-03-06T01:43:25.556Z,6.90
2023-03-06T01:45:26.956Z,6.90
2023-03-06T01:47:28.571Z,6.89
2023-03-06T01:49:41.580Z,6.86
2023-03-06T01:52:05.421Z,6.86
2023-03-06T01:54:11.813Z,6.85
2023-03-06T01:56:14.188Z,6.83
2023-03-06T01:58:19.154Z,6.83
2023-03-06T02:00:27.268Z,6.84
2023-03-06T02:02:29.391Z,6.85
2023-03-06T02:04:31.962Z,6.83
2023-03-06T02:06:37.483Z,6.84
2023-03-06T02:08:39.625Z,6.83
2023-03-06T02:10:58.410Z,6.82
2023-03-06T02:13:00.622Z,6.82
2023-03-06T02:15:02.399Z,6.80
2023-03-06T02:17:04.226Z,6.82
2023-03-06T02:19:16.693Z,6.81
2023-03-06T02:21:27.246Z,6.80
2023-03-06T02:23:48.331Z,6.81
2023-03-06T02:25:51.843Z,6.80
2023-03-06T02:27:53.389Z,6.78
2023-03-06T02:29:55.227Z,6.77
2023-03-06T02:31:56.939Z,6.77
2023-03-06T02:34:23.046Z,6.77
2023-03-06T02:36:24.637Z,6.74
2023-03-06T02:38:29.772Z,6.72
2023-03-06T02:40:31.744Z,6.75
2023-03-06T02:42:33.400Z,6.72
2023-03-06T02:44:36.692Z,6.72
2023-03-06T02:46:39.492Z,6.72
2023-03-06T02:48:41.092Z,6.71
2023-03-06T02:50:44.394Z,6.73
2023-03-06T02:52:46.101Z,6.70
2023-03-06T02:54:47.730Z,6.69
2023-03-06T02:56:49.465Z,6.68
2023-03-06T02:58:52.126Z,6.67
2023-03-06T03:00:54.933Z,6.65
2023-03-06T03:02:56.957Z,6.66
2023-03-06T03:04:58.623Z,6.64
2023-03-06T03:07:00.272Z,6.63
2023-03-06T03:09:02.106Z,6.65
2023-03-06T03:11:05.396Z,6.63
2023-03-06T03:13:13.397Z,6.63
2023-03-06T03:15:16.790Z,6.63
2023-03-06T03:17:18.821Z,6.61
2023-03-06T03:19:21.215Z,6.61
2023-03-06T03:21:23.222Z,6.62
2023-03-06T03:23:25.532Z,6.60
2023-03-06T03:25:27.362Z,6.61
2023-03-06T03:27:32.930Z,6.60
2023-03-06T03:29:34.721Z,6.60
2023-03-06T03:31:36.630Z,6.60
2023-03-06T03:33:39.737Z,6.58
2023-03-06T03:35:41.983Z,6.60
2023-03-06T03:37:43.562Z,6.59
2023-03-06T03:39:45.152Z,6.59
2023-03-06T03:41:46.974Z,6.58
2023-03-06T03:43:48.614Z,6.57
2023-03-06T03:45:50.368Z,6.58
2023-03-06T03:47:52.435Z,6.58
2023-03-06T03:49:54.853Z,6.55
2023-03-06T03:51:59.098Z,6.54
2023-03-06T03:54:06.098Z,6.55
2023-03-06T03:56:13.305Z,6.52
2023-03-06T03:58:23.605Z,6.51
2023-03-06T04:00:25.399Z,6.51
2023-03-06T04:02:37.491Z,6.51
2023-03-06T04:04:47.820Z,6.50
2023-03-06T04:06:49.534Z,6.49
2023-03-06T04:08:53.232Z,6.49
2023-03-06T04:10:55.301Z,6.49
2023-03-06T04:12:58.292Z,6.46
2023-03-06T04:15:01.105Z,6.46
2023-03-06T04:17:03.190Z,6.47
2023-03-06T04:19:04.796Z,6.48
2023-03-06T04:21:07.093Z,6.47
2023-03-06T04:23:09.144Z,6.48
2023-03-06T04:25:10.830Z,6.48
2023-03-06T04:27:12.346Z,6.48
2023-03-06T04:29:14.172Z,6.46
2023-03-06T04:31:15.870Z,6.47
2023-03-06T04:33:18.189Z,6.46
2023-03-06T04:35:20.039Z,6.47
2023-03-06T04:37:31.766Z,6.46
2023-03-06T04:39:34.773Z,6.46
2023-03-06T04:41:36.571Z,6.48
2023-03-06T04:43:39.506Z,6.48
2023-03-06T04:45:41.353Z,6.46
2023-03-06T04:47:43.014Z,6.46
2023-03-06T04:49:44.644Z,6.46
2023-03-06T04:51:46.205Z,6.46
2023-03-06T04:53:47.766Z,6.46
2023-03-06T04:55:49.378Z,6.45
2023-03-06T04:57:51.196Z,6.46
2023-03-06T04:59:52.697Z,6.47
2023-03-06T05:01:54.371Z,6.44
2023-03-06T05:03:55.924Z,6.46
2023-03-06T05:05:57.675Z,6.47
2023-03-06T05:07:59.202Z,6.46
2023-03-06T05:10:00.788Z,6.45
2023-03-06T05:12:03.647Z,6.44
2023-03-06T05:14:05.194Z,6.43
2023-03-06T05:16:07.656Z,6.41
2023-03-06T05:18:09.222Z,6.43
2023-03-06T05:20:12.344Z,6.42
2023-03-06T05:22:13.886Z,6.43
2023-03-06T05:24:15.506Z,6.43
2023-03-06T05:26:17.092Z,6.44
2023-03-06T05:28:18.812Z,6.44
2023-03-06T05:30:22.510Z,6.43
2023-03-06T05:32:24.183Z,6.42
2023-03-06T05:34:25.940Z,6.42
2023-03-06T05:36:27.660Z,6.41
2023-03-06T05:38:29.224Z,6.40
2023-03-06T05:40:30.790Z,6.39
2023-03-06T05:42:32.338Z,6.40
2023-03-06T05:44:35.486Z,6.38
2023-03-06T05:46:38.160Z,6.36
2023-03-06T05:48:39.915Z,6.36
2023-03-06T05:50:41.506Z,6.36
2023-03-06T05:52:43.145Z,6.34
2023-03-06T05:54:44.867Z,6.34
2023-03-06T05:56:46.567Z,6.34
2023-03-06T05:58:48.660Z,6.35
2023-03-06T06:00:50.265Z,6.37
2023-03-06T06:02:51.915Z,6.37
2023-03-06T06:04:53.928Z,6.36
2023-03-06T06:06:59.143Z,6.35
2023-03-06T06:09:00.681Z,6.35
2023-03-06T06:11:04.774Z,6.34
2023-03-06T06:13:06.850Z,6.36
2023-03-06T06:15:09.164Z,6.36
2023-03-06T06:17:12.493Z,6.35
2023-03-06T06:19:18.621Z,6.34
2023-03-06T06:21:20.526Z,6.36
2023-03-06T06:23:22.176Z,6.35
2023-03-06T06:25:23.870Z,6.36
2023-03-06T06:27:25.473Z,6.37
2023-03-06T06:29:28.456Z,6.35
2023-03-06T06:31:30.251Z,6.36
2023-03-06T06:33:32.078Z,6.36
2023-03-06T06:35:36.517Z,6.34
2023-03-06T06:37:38.050Z,6.36
2023-03-06T06:39:40.486Z,6.36
2023-03-06T06:41:57.291Z,6.36
2023-03-06T06:44:04.158Z,6.38
2023-03-06T06:46:38.855Z,6.39
2023-03-06T06:48:27.800Z,6.39
2023-03-06T06:50:29.480Z,6.40
2023-03-06T06:52:31.299Z,6.42
2023-03-06T06:54:34.401Z,6.43
2023-03-06T06:56:36.206Z,6.44
2023-03-06T06:58:37.768Z,6.46
2023-03-06T07:00:39.579Z,6.49
2023-03-06T07:02:41.358Z,6.50
2023-03-06T07:05:00.331Z,6.52
2023-03-06T07:07:04.178Z,6.50
2023-03-06T07:09:05.675Z,6.49
2023-03-06T07:11:14.012Z,6.51
2023-03-06T07:13:15.679Z,6.52
2023-03-06T07:15:18.430Z,6.54
2023-03-06T07:17:19.957Z,6.56
2023-03-06T07:19:21.696Z,6.59
2023-03-06T07:21:23.389Z,6.58
2023-03-06T07:23:26.538Z,6.60
2023-03-06T07:25:28.300Z,6.60
2023-03-06T07:27:29.947Z,6.63
2023-03-06T07:29:32.972Z,6.66
2023-03-06T07:31:35.377Z,6.68
2023-03-06T07:33:38.909Z,6.69
2023-03-06T07:35:41.847Z,6.73
2023-03-06T07:37:43.492Z,6.74
2023-03-06T07:39:45.043Z,6.78
2023-03-06T07:41:47.011Z,6.81
2023-03-06T07:43:48.739Z,6.82
2023-03-06T07:45:59.277Z,6.82
2023-03-06T07:48:00.863Z,6.85
2023-03-06T07:50:07.317Z,6.87
2023-03-06T07:52:09.093Z,6.91
2023-03-06T07:54:11.083Z,6.95
2023-03-06T07:56:13.250Z,6.95
2023-03-06T07:58:14.907Z,6.98
2023-03-06T08:00:19.058Z,7.00
2023-03-06T08:02:20.707Z,7.01
2023-03-06T08:04:22.273Z,7.07
2023-03-06T08:06:26.651Z,7.10
2023-03-06T08:08:28.235Z,7.15
2023-03-06T08:10:29.990Z,7.19
2023-03-06T08:12:31.946Z,7.23
2023-03-06T08:14:35.036Z,7.26
2023-03-06T08:16:36.693Z,7.29
2023-03-06T08:18:41.500Z,7.34
2023-03-06T08:20:43.386Z,7.39
2023-03-06T08:22:45.656Z,7.43
2023-03-06T08:24:47.233Z,7.49
2023-03-06T08:26:48.868Z,7.53
2023-03-06T08:28:52.294Z,7.55
2023-03-06T08:30:54.289Z,7.59
2023-03-06T08:32:56.036Z,7.63
2023-03-06T08:34:57.683Z,7.67
2023-03-06T08:36:59.480Z,7.73
2023-03-06T08:39:01.913Z,7.79
2023-03-06T08:41:04.076Z,7.83
2023-03-06T08:45:13.375Z,7.92
2023-03-06T08:47:15.124Z,7.97
2023-03-06T08:49:16.565Z,8.01
2023-03-06T08:51:18.810Z,8.06
2023-03-06T08:53:24.128Z,8.09
2023-03-06T08:55:30.192Z,8.13
2023-03-06T08:57:31.760Z,8.15
2023-03-06T08:59:33.495Z,8.17
2023-03-06T09:01:37.835Z,8.21
2023-03-06T09:03:42.540Z,8.23
2023-03-06T09:05:44.072Z,8.26
2023-03-06T09:07:45.844Z,8.29
2023-03-06T09:09:47.759Z,8.33
2023-03-06T09:11:51.229Z,8.37
2023-03-06T09:13:53.660Z,8.39
2023-03-06T09:15:55.241Z,8.43
2023-03-06T09:17:57.091Z,8.45
2023-03-06T09:19:59.029Z,8.48
2023-03-06T09:22:01.245Z,8.51
2023-03-06T09:24:03.066Z,8.53
2023-03-06T09:26:06.856Z,8.55
2023-03-06T09:28:11.642Z,8.56
2023-03-06T09:30:14.585Z,8.57
2023-03-06T09:32:19.066Z,8.57
2023-03-06T09:34:21.931Z,8.58
2023-03-06T09:36:23.983Z,8.58
2023-03-06T09:38:28.040Z,8.61
2023-03-06T09:40:58.603Z,8.61
2023-03-06T09:43:00.952Z,8.62
2023-03-06T09:45:04.647Z,8.62
2023-03-06T09:47:13.768Z,8.60
2023-03-06T09:49:34.342Z,8.59
2023-03-06T09:51:51.396Z,8.58
2023-03-06T09:53:59.262Z,8.57
2023-03-06T09:56:14.552Z,8.55
2023-03-06T09:58:20.498Z,8.54
2023-03-06T10:00:34.088Z,8.51
2023-03-06T10:02:46.452Z,8.49
2023-03-06T10:04:54.665Z,8.49
2023-03-06T10:07:14.943Z,8.45
2023-03-06T10:09:24.931Z,8.45
2023-03-06T10:11:36.720Z,8.44
2023-03-06T10:13:42.828Z,8.43
2023-03-06T10:15:46.375Z,8.45
2023-03-06T10:17:48.685Z,8.47
2023-03-06T10:19:51.036Z,8.50
2023-03-06T10:22:13.865Z,8.52
2023-03-06T10:24:45.344Z,8.55
2023-03-06T10:27:14.731Z,8.56
2023-03-06T10:30:01.254Z,8.57
2023-03-06T10:32:13.753Z,8.60
2023-03-06T10:34:22.463Z,8.65
2023-03-06T10:36:27.509Z,8.68
2023-03-06T10:38:32.241Z,8.70
2023-03-06T10:40:46.305Z,8.74
2023-03-06T10:42:49.533Z,8.77
2023-03-06T10:45:11.002Z,8.81
2023-03-06T10:47:31.448Z,8.88
2023-03-06T10:49:40.922Z,8.94
2023-03-06T10:52:15.852Z,8.99
2023-03-06T10:58:22.315Z,9.12
2023-03-06T11:00:36.014Z,9.17
2023-03-06T11:02:41.243Z,9.24
2023-03-06T11:04:51.426Z,9.28
2023-03-06T11:07:19.616Z,9.33
2023-03-06T11:09:24.695Z,9.41
2023-03-06T11:11:37.159Z,9.46
2023-03-06T11:13:43.364Z,9.51
2023-03-06T11:16:06.612Z,9.55
2023-03-06T11:18:08.333Z,9.61
2023-03-06T11:20:20.317Z,9.63
2023-03-06T11:22:24.836Z,9.64
2023-03-06T11:24:38.600Z,9.64
2023-03-06T11:26:56.129Z,9.67
2023-03-06T11:29:03.560Z,9.71
2023-03-06T11:31:17.332Z,9.73
2023-03-06T11:33:28.555Z,9.76
2023-03-06T11:35:46.512Z,9.77
2023-03-06T11:38:00.188Z,9.80
2023-03-06T11:40:11.057Z,9.81
2023-03-06T11:42:57.456Z,9.84
2023-03-06T11:45:26.783Z,9.86
2023-03-06T11:47:41.009Z,9.92
2023-03-06T11:50:21.454Z,9.98
2023-03-06T11:52:29.322Z,10.04
2023-03-06T11:54:34.616Z,10.09
2023-03-06T11:56:51.775Z,10.13
2023-03-06T11:59:19.519Z,10.17
2023-03-06T12:01:39.363Z,10.19
2023-03-06T12:04:03.817Z,10.18
2023-03-06T12:06:33.058Z,10.22
2023-03-06T12:08:51.348Z,10.23
2023-03-06T12:11:01.938Z,10.25
2023-03-06T12:13:17.743Z,10.26
2023-03-06T12:15:24.334Z,10.29
2023-03-06T12:17:44.155Z,10.32
2023-03-06T12:20:10.606Z,10.31
2023-03-06T12:22:31.228Z,10.37
2023-03-06T12:25:00.634Z,10.38
2023-03-06T12:27:30.929Z,10.39
2023-03-06T12:30:10.482Z,10.41
2023-03-06T12:32:35.240Z,10.41
2023-03-06T12:35:22.854Z,10.40
2023-03-06T12:37:34.733Z,10.39
2023-03-06T12:39:47.684Z,10.39
2023-03-06T12:42:23.122Z,10.38
2023-03-06T12:44:42.448Z,10.37
2023-03-06T12:46:50.126Z,10.35
2023-03-06T12:49:31.488Z,10.34
2023-03-06T12:51:34.939Z,10.35
2023-03-06T12:53:37.823Z,10.32
2023-03-06T12:55:46.588Z,10.32
2023-03-06T12:57:48.905Z,10.33
2023-03-06T12:59:51.597Z,10.32
2023-03-06T13:02:14.907Z,10.30
2023-03-06T13:04:35.676Z,10.28
2023-03-06T13:06:55.223Z,10.24
2023-03-06T13:09:30.418Z,10.20
2023-03-06T13:11:50.631Z,10.18
2023-03-06T13:13:52.286Z,10.16
2023-03-06T13:16:14.045Z,10.15
2023-03-06T13:18:44.219Z,10.09
2023-03-06T13:20:46.215Z,10.08
2023-03-06T13:22:47.886Z,10.08
2023-03-06T13:25:18.599Z,10.05
2023-03-06T13:27:52.064Z,10.02
2023-03-06T13:30:05.210Z,10.01
2023-03-06T13:32:17.756Z,10.00
2023-03-06T13:34:31.654Z,9.97
2023-03-06T13:36:37.586Z,10.01
2023-03-06T13:38:40.853Z,10.00
2023-03-06T13:40:42.553Z,10.01
2023-03-06T13:43:07.261Z,10.01
2023-03-06T13:45:16.341Z,9.99
2023-03-06T13:47:28.305Z,10.00
2023-03-06T13:49:30.570Z,10.00
2023-03-06T13:51:36.559Z,9.96
2023-03-06T13:54:19.332Z,9.92
2023-03-06T13:56:21.557Z,9.92
2023-03-06T13:59:01.034Z,9.89
2023-03-06T14:01:33.151Z,9.86
2023-03-06T14:04:27.290Z,9.83
2023-03-06T14:06:34.816Z,9.79
2023-03-06T14:08:41.067Z,9.76
2023-03-06T14:10:45.323Z,9.76
2023-03-06T14:12:50.133Z,9.72
2023-03-06T14:15:01.415Z,9.70
2023-03-06T14:17:05.287Z,9.67
2023-03-06T14:19:17.095Z,9.64
2023-03-06T14:21:31.114Z,9.61
2023-03-06T14:23:38.083Z,9.58
2023-03-06T14:25:40.346Z,9.58
2023-03-06T14:27:51.682Z,9.56
2023-03-06T14:30:09.159Z,9.56
2023-03-06T14:32:12.311Z,9.54
2023-03-06T14:34:21.170Z,9.52
2023-03-06T14:36:42.141Z,9.51
2023-03-06T14:38:50.064Z,9.47
2023-03-06T14:40:52.549Z,9.45
2023-03-06T14:43:26.854Z,9.44
2023-03-06T14:45:28.524Z,9.41
2023-03-06T14:47:32.535Z,9.40
2023-03-06T14:49:34.178Z,9.38
2023-03-06T14:51:45.844Z,9.37
2023-03-06T14:53:50.276Z,9.36
2023-03-06T14:56:06.050Z,9.33
2023-03-06T14:58:14.181Z,9.32
2023-03-06T15:00:20.546Z,9.32
2023-03-06T15:02:26.508Z,9.35
2023-03-06T15:04:43.681Z,9.33
2023-03-06T15:06:50.348Z,9.35
2023-03-06T15:09:00.579Z,9.33
2023-03-06T15:11:07.529Z,9.31
2023-03-06T15:13:17.729Z,9.30
2023-03-06T15:15:26.975Z,9.28
2023-03-06T15:17:32.303Z,9.29
2023-03-06T15:19:40.638Z,9.24
2023-03-06T15:21:49.705Z,9.24
2023-03-06T15:23:53.558Z,9.20
2023-03-06T15:26:00.452Z,9.16
2023-03-06T15:28:22.727Z,9.15
2023-03-06T15:30:32.925Z,9.11
2023-03-06T15:32:35.873Z,9.10
2023-03-06T15:34:37.534Z,9.08
2023-03-06T15:36:44.855Z,9.08
2023-03-06T15:38:47.217Z,9.01
2023-03-06T15:41:00.604Z,8.97
2023-03-06T15:43:02.821Z,8.96
2023-03-06T15:45:18.886Z,8.95
2023-03-06T15:47:23.390Z,8.91
2023-03-06T15:49:25.561Z,8.92
2023-03-06T15:51:30.080Z,8.91
2023-03-06T15:53:34.205Z,8.89
2023-03-06T15:55:39.920Z,8.86
2023-03-06T15:57:49.389Z,8.84
2023-03-06T15:59:51.814Z,8.82
2023-03-06T16:01:54.424Z,8.80
2023-03-06T16:03:56.369Z,8.75
2023-03-06T16:05:58.324Z,8.72
2023-03-06T16:07:59.919Z,8.70
2023-03-06T16:10:01.742Z,8.66
2023-03-06T16:12:04.004Z,8.62
2023-03-06T16:14:05.589Z,8.58
2023-03-06T16:16:07.425Z,8.55
2023-03-06T16:18:12.242Z,8.54
2023-03-06T16:20:19.810Z,8.47
2023-03-06T16:22:21.280Z,8.42
2023-03-06T16:24:26.668Z,8.39
2023-03-06T16:26:30.849Z,8.37
2023-03-06T16:28:32.911Z,8.34
2023-03-06T16:30:35.761Z,8.30
2023-03-06T16:32:37.484Z,8.29
2023-03-06T16:34:39.169Z,8.24
2023-03-06T16:36:41.438Z,8.21
2023-03-06T16:38:43.213Z,8.18
2023-03-06T16:40:45.175Z,8.17
2023-03-06T16:42:47.896Z,8.16
2023-03-06T16:44:49.757Z,8.12
2023-03-06T16:46:51.558Z,8.09
2023-03-06T16:48:53.265Z,8.08
2023-03-06T16:50:55.271Z,8.02
2023-03-06T16:53:00.537Z,7.99
2023-03-06T16:55:02.699Z,7.98
2023-03-06T16:57:06.797Z,7.94
2023-03-06T16:59:12.800Z,7.92
2023-03-06T17:01:17.228Z,7.91
2023-03-06T17:03:18.882Z,7.88
2023-03-06T17:05:20.625Z,7.85
2023-03-06T17:07:22.533Z,7.85
2023-03-06T17:09:26.167Z,7.84
2023-03-06T17:11:28.120Z,7.83
2023-03-06T17:13:33.490Z,7.82
2023-03-06T17:15:38.508Z,7.81
2023-03-06T17:17:40.610Z,7.84
2023-03-06T17:19:52.892Z,7.80
2023-03-06T17:21:54.927Z,7.77
2023-03-06T17:23:57.319Z,7.77
2023-03-06T17:26:11.196Z,7.75
2023-03-06T17:28:15.303Z,7.75
2023-03-06T17:30:17.388Z,7.74
2023-03-06T17:32:19.675Z,7.74
2023-03-06T17:34:23.623Z,7.74
2023-03-06T17:36:31.182Z,7.76
2023-03-06T17:38:32.863Z,7.73
2023-03-06T17:40:34.823Z,7.71
2023-03-06T17:42:36.851Z,7.73
2023-03-06T17:44:39.252Z,7.72
2023-03-06T17:46:41.029Z,7.72
2023-03-06T17:48:42.712Z,7.70
2023-03-06T17:50:53.095Z,7.70
2023-03-06T17:52:54.954Z,7.70
2023-03-06T17:54:56.801Z,7.69
2023-03-06T17:57:03.481Z,7.70
2023-03-06T17:59:05.294Z,7.71
2023-03-06T18:01:18.553Z,7.68
2023-03-06T18:03:20.610Z,7.67
2023-03-06T18:05:22.230Z,7.64
2023-03-06T18:07:24.592Z,7.63
2023-03-06T18:09:26.435Z,7.63
2023-03-06T18:11:28.711Z,7.63
2023-03-06T18:13:33.266Z,7.60
2023-03-06T18:15:39.624Z,7.60
2023-03-06T18:17:41.915Z,7.60
2023-03-06T18:19:43.951Z,7.58
2023-03-06T18:21:49.956Z,7.54
2023-03-06T18:23:51.749Z,7.56
2023-03-06T18:25:53.660Z,7.55
2023-03-06T18:27:55.227Z,7.55
2023-03-06T18:29:57.635Z,7.53
2023-03-06T18:31:59.508Z,7.52
2023-03-06T18:34:05.542Z,7.52
2023-03-06T18:36:07.472Z,7.51
2023-03-06T18:38:09.756Z,7.50
2023-03-06T18:40:12.861Z,7.50
2023-03-06T18:42:14.363Z,7.49
2023-03-06T18:44:17.506Z,7.52
2023-03-06T18:46:19.974Z,7.49
2023-03-06T18:48:23.515Z,7.46
2023-03-06T18:50:25.197Z,7.45
2023-03-06T18:52:26.945Z,7.46
2023-03-06T18:54:29.784Z,7.45
2023-03-06T18:56:32.421Z,7.44
2023-03-06T18:58:34.547Z,7.46
2023-03-06T19:00:36.214Z,7.45
2023-03-06T19:02:37.861Z,7.43
2023-03-06T19:04:39.695Z,7.44
2023-03-06T19:06:41.789Z,7.45
2023-03-06T19:08:43.557Z,7.42
2023-03-06T19:10:46.435Z,7.43
2023-03-06T19:12:48.107Z,7.43
2023-03-06T19:14:49.762Z,7.44
2023-03-06T19:16:51.546Z,7.44
2023-03-06T19:18:55.581Z,7.46
2023-03-06T19:21:08.850Z,7.44
2023-03-06T19:23:14.108Z,7.44
2023-03-06T19:25:16.128Z,7.44
2023-03-06T19:27:17.750Z,7.44
2023-03-06T19:29:19.473Z,7.44
2023-03-06T19:31:26.668Z,7.42
2023-03-06T19:33:28.961Z,7.44
2023-03-06T19:35:32.594Z,7.44
2023-03-06T19:37:34.596Z,7.43
2023-03-06T19:39:38.248Z,7.43
2023-03-06T19:41:40.031Z,7.42
2023-03-06T19:43:42.708Z,7.43
2023-03-06T19:45:44.637Z,7.42
2023-03-06T19:47:46.382Z,7.40
2023-03-06T19:49:48.421Z,7.39
2023-03-06T19:51:50.286Z,7.38
2023-03-06T19:53:52.340Z,7.38
2023-03-06T19:56:03.967Z,7.37
2023-03-06T19:58:05.959Z,7.36
2023-03-06T20:00:08.381Z,7.37
2023-03-06T20:02:16.217Z,7.34
2023-03-06T20:04:17.986Z,7.34
2023-03-06T20:06:20.374Z,7.34
2023-03-06T20:08:22.076Z,7.34
2023-03-06T20:10:23.684Z,7.33
2023-03-06T20:12:25.431Z,7.34
2023-03-06T20:14:27.234Z,7.34
2023-03-06T20:16:29.846Z,7.34
2023-03-06T20:18:37.273Z,7.36
2023-03-06T20:20:56.698Z,7.35
2023-03-06T20:23:02.612Z,7.33
2023-03-06T20:25:04.609Z,7.33
2023-03-06T20:27:06.365Z,7.33
2023-03-06T20:29:08.036Z,7.31
2023-03-06T20:31:16.791Z,7.29
2023-03-06T20:33:19.595Z,7.32
2023-03-06T20:35:21.887Z,7.33
2023-03-06T20:37:23.538Z,7.33
2023-03-06T20:39:25.431Z,7.34
2023-03-06T20:41:28.883Z,7.36
2023-03-06T20:43:30.642Z,7.36
2023-03-06T20:45:33.102Z,7.36
2023-03-06T20:47:34.739Z,7.38
2023-03-06T20:49:36.657Z,7.37
2023-03-06T20:51:39.832Z,7.37
2023-03-06T20:53:41.374Z,7.37
2023-03-06T20:55:43.011Z,7.37
2023-03-06T20:57:44.767Z,7.38
2023-03-06T20:59:46.436Z,7.39
2023-03-06T21:01:52.509Z,7.43
2023-03-06T21:03:56.791Z,7.43
2023-03-06T21:05:58.643Z,7.43
2023-03-06T21:08:00.333Z,7.44
2023-03-06T21:10:02.291Z,7.44
2023-03-06T21:12:05.023Z,7.44
2023-03-06T21:14:07.013Z,7.47
2023-03-06T21:16:12.606Z,7.51
2023-03-06T21:18:14.836Z,7.52
2023-03-06T21:20:16.815Z,7.52
2023-03-06T21:22:18.525Z,7.52
2023-03-06T21:24:21.329Z,7.52
2023-03-06T21:26:26.454Z,7.53
2023-03-06T21:28:28.307Z,7.52
2023-03-06T21:30:30.363Z,7.52
2023-03-06T21:32:32.030Z,7.52
2023-03-06T21:34:33.928Z,7.52
2023-03-06T21:36:35.707Z,7.52
2023-03-06T21:38:40.530Z,7.52
2023-03-06T21:40:42.846Z,7.53
2023-03-06T21:42:44.580Z,7.55
2023-03-06T21:44:46.306Z,7.54
2023-03-06T21:46:47.876Z,7.52
2023-03-06T21:48:49.628Z,7.52
2023-03-06T21:50:51.408Z,7.52
2023-03-06T21:52:53.605Z,7.52
2023-03-06T21:54:55.305Z,7.52
2023-03-06T21:56:59.919Z,7.51
2023-03-06T21:59:04.698Z,7.51
2023-03-06T22:01:18.170Z,7.49
2023-03-06T22:03:19.956Z,7.49
2023-03-06T22:05:24.782Z,7.46
2023-03-06T22:07:27.261Z,7.47
2023-03-06T22:09:28.994Z,7.48
2023-03-06T22:11:36.975Z,7.49
2023-03-06T22:13:39.136Z,7.45
2023-03-06T22:15:48.675Z,7.47
2023-03-06T22:17:50.223Z,7.45
2023-03-06T22:19:53.544Z,7.46
2023-03-06T22:21:55.602Z,7.47
2023-03-06T22:23:58.616Z,7.44
2023-03-06T22:26:04.807Z,7.45
2023-03-06T22:28:06.372Z,7.43
2023-03-06T22:30:08.954Z,7.43
2023-03-06T22:32:10.920Z,7.41
2023-03-06T22:34:12.631Z,7.40
2023-03-06T22:36:18.132Z,7.39
2023-03-06T22:38:19.870Z,7.41
2023-03-06T22:40:29.122Z,7.39
2023-03-06T22:42:33.294Z,7.38
2023-03-06T22:44:35.139Z,7.37
2023-03-06T22:46:36.970Z,7.37
2023-03-06T22:48:39.921Z,7.35
2023-03-06T22:50:45.615Z,7.35
2023-03-06T22:52:49.519Z,7.35
2023-03-06T22:54:51.147Z,7.34
2023-03-06T22:57:00.099Z,7.30
2023-03-06T22:59:02.221Z,7.33
2023-03-06T23:01:15.341Z,7.29
2023-03-06T23:03:17.130Z,7.28
2023-03-06T23:05:18.907Z,7.28
2023-03-06T23:07:21.158Z,7.29
2023-03-06T23:09:23.729Z,7.28
2023-03-06T23:11:47.702Z,7.26
2023-03-06T23:14:08.306Z,7.26
2023-03-06T23:16:28.676Z,7.23
2023-03-06T23:18:52.350Z,7.22
2023-03-06T23:21:15.015Z,7.21
2023-03-06T23:23:37.450Z,7.21
2023-03-06T23:25:39.919Z,7.18
2023-03-06T23:27:41.586Z,7.19
2023-03-06T23:29:43.746Z,7.18
2023-03-06T23:31:45.364Z,7.20
2023-03-06T23:33:47.937Z,7.18
2023-03-06T23:35:49.534Z,7.18
2023-03-06T23:37:51.717Z,7.17
2023-03-06T23:39:54.473Z,7.18
2023-03-06T23:41:55.988Z,7.18
2023-03-06T23:43:58.371Z,7.18
2023-03-06T23:46:00.180Z,7.19
2023-03-06T23:48:01.725Z,7.19
2023-03-06T23:50:03.934Z,7.18
2023-03-06T23:52:05.709Z,7.17
2023-03-06T23:54:07.336Z,7.15
2023-03-06T23:56:09.904Z,7.15
2023-03-06T23:58:13.112Z,7.16
